createdAt,value
2019-02-28T00:00:01.938Z,99483.98
2019-02-28T00:02:32.067Z,99484.94
2019-02-28T00:05:05.868Z,99481.63
2019-02-28T00:07:33.849Z,99484.50
2019-02-28T00:10:03.557Z,99484.89
2019-02-28T00:12:35.276Z,99484.33
2019-02-28T00:15:07.077Z,99473.30
2019-02-28T00:17:36.358Z,99474.30
2019-02-28T00:20:13.366Z,99482.33
2019-02-28T00:22:54.519Z,99481.64
2019-02-28T00:25:25.503Z,99476.54
2019-02-28T00:27:56.465Z,99474.00
2019-02-28T00:30:25.410Z,99470.24
2019-02-28T00:32:59.272Z,99463.84
2019-02-28T00:35:30.259Z,99460.22
2019-02-28T00:38:01.240Z,99464.56
2019-02-28T00:40:30.581Z,99455.61
2019-02-28T00:43:01.423Z,99452.98
2019-02-28T00:45:30.742Z,99454.98
2019-02-28T00:48:00.903Z,99451.91
2019-02-28T00:50:34.672Z,99456.47
2019-02-28T00:53:07.396Z,99449.06
2019-02-28T00:55:38.132Z,99447.55
2019-02-28T00:58:07.328Z,99448.44
2019-02-28T01:00:40.451Z,99452.16
2019-02-28T01:03:13.972Z,99446.81
2019-02-28T01:05:44.774Z,99450.67
2019-02-28T01:08:24.084Z,99444.20
2019-02-28T01:10:54.578Z,99450.30
2019-02-28T01:13:28.078Z,99446.50
2019-02-28T01:15:58.753Z,99441.44
2019-02-28T01:18:34.422Z,99441.89
2019-02-28T01:21:00.905Z,99435.83
2019-02-28T01:23:31.645Z,99435.20
2019-02-28T01:26:01.646Z,99433.34
2019-02-28T01:28:30.676Z,99425.95
2019-02-28T01:31:01.707Z,99424.09
2019-02-28T01:33:33.451Z,99417.62
2019-02-28T01:36:03.626Z,99414.70
2019-02-28T01:38:35.035Z,99419.23
2019-02-28T01:41:05.267Z,99415.80
2019-02-28T01:43:37.934Z,99415.92
2019-02-28T01:46:06.934Z,99408.08
2019-02-28T01:48:40.570Z,99404.84
2019-02-28T01:51:09.972Z,99412.63
2019-02-28T01:53:40.241Z,99403.91
2019-02-28T01:56:09.463Z,99401.65
2019-02-28T01:58:42.111Z,99402.29
2019-02-28T02:01:14.170Z,99402.16
2019-02-28T02:03:45.140Z,99398.61
2019-02-28T02:06:34.318Z,99391.33
2019-02-28T02:09:03.863Z,99390.97
2019-02-28T02:11:35.933Z,99373.41
2019-02-28T02:14:07.539Z,99376.58
2019-02-28T02:16:41.420Z,99369.44
2019-02-28T02:19:10.963Z,99363.58
2019-02-28T02:21:40.823Z,99366.63
2019-02-28T02:24:11.320Z,99364.25
2019-02-28T02:26:46.556Z,99362.27
2019-02-28T02:29:20.084Z,99363.27
2019-02-28T02:31:50.065Z,99354.17
2019-02-28T02:34:24.272Z,99349.63
2019-02-28T02:36:57.609Z,99343.79
2019-02-28T02:39:31.160Z,99340.41
2019-02-28T02:42:00.985Z,99333.48
2019-02-28T02:44:33.147Z,99339.31
2019-02-28T02:47:03.339Z,99333.39
2019-02-28T02:49:35.998Z,99331.22
2019-02-28T02:52:07.806Z,99332.59
2019-02-28T02:54:40.206Z,99320.28
2019-02-28T02:57:13.939Z,99320.73
2019-02-28T02:59:45.258Z,99314.66
2019-02-28T03:02:15.058Z,99312.48
2019-02-28T03:04:45.944Z,99311.85
2019-02-28T03:07:23.271Z,99306.69
2019-02-28T03:09:51.345Z,99303.06
2019-02-28T03:12:20.716Z,99303.31
2019-02-28T03:14:51.540Z,99295.67
2019-02-28T03:17:21.400Z,99301.21
2019-02-28T03:19:50.621Z,99294.03
2019-02-28T03:22:28.082Z,99295.05
2019-02-28T03:24:58.260Z,99297.84
2019-02-28T03:27:27.678Z,99299.91
2019-02-28T03:29:56.664Z,99299.69
2019-02-28T03:32:39.729Z,99296.66
2019-02-28T03:34:59.572Z,99298.96
2019-02-28T03:37:33.210Z,99299.58
2019-02-28T03:40:05.223Z,99301.56
2019-02-28T03:42:34.462Z,99300.55
2019-02-28T03:45:06.214Z,99299.15
2019-02-28T03:47:39.369Z,99295.16
2019-02-28T03:50:09.074Z,99292.68
2019-02-28T03:52:44.701Z,99296.25
2019-02-28T03:55:17.011Z,99294.49
2019-02-28T03:57:46.051Z,99298.14
2019-02-28T04:00:16.841Z,99297.16
2019-02-28T04:02:46.513Z,99297.41
2019-02-28T04:05:16.591Z,99305.37
2019-02-28T04:07:53.033Z,99038.92
2019-02-28T04:10:22.787Z,99308.46
2019-02-28T04:12:52.869Z,99300.75
2019-02-28T04:15:24.595Z,99295.70
2019-02-28T04:17:56.367Z,99303.59
2019-02-28T04:20:27.411Z,99304.98
2019-02-28T04:23:00.168Z,99307.22
2019-02-28T04:25:30.342Z,99307.37
2019-02-28T04:28:02.260Z,99314.48
2019-02-28T04:30:42.570Z,99312.06
2019-02-28T04:33:10.743Z,99309.98
2019-02-28T04:35:41.091Z,99303.71
2019-02-28T04:38:10.750Z,99308.34
2019-02-28T04:40:39.964Z,99312.60
2019-02-28T04:43:11.301Z,99309.98
2019-02-28T04:45:43.650Z,99302.03
2019-02-28T04:48:14.626Z,99310.59
2019-02-28T04:50:46.668Z,99306.45
2019-02-28T04:53:18.938Z,99307.59
2019-02-28T04:55:49.030Z,99310.43
2019-02-28T04:58:22.409Z,99317.44
2019-02-28T05:00:52.645Z,99314.81
2019-02-28T05:03:29.042Z,99319.92
2019-02-28T05:05:58.390Z,99312.24
2019-02-28T05:08:27.648Z,99310.47
2019-02-28T05:10:59.249Z,99309.51
2019-02-28T05:13:28.270Z,99311.73
2019-02-28T05:16:04.385Z,99309.34
2019-02-28T05:18:37.075Z,99308.20
2019-02-28T05:21:07.390Z,99306.84
2019-02-28T05:23:36.827Z,99311.87
2019-02-28T05:26:11.829Z,99301.77
2019-02-28T05:28:46.710Z,99301.89
2019-02-28T05:31:15.929Z,99294.48
2019-02-28T05:33:48.050Z,99293.80
2019-02-28T05:36:17.258Z,99292.64
2019-02-28T05:38:46.254Z,99293.08
2019-02-28T05:41:15.986Z,99293.63
2019-02-28T05:43:47.977Z,99305.47
2019-02-28T05:46:23.772Z,99303.09
2019-02-28T05:48:52.353Z,99306.36
2019-02-28T05:51:24.913Z,99303.67
2019-02-28T05:53:53.727Z,99306.06
2019-02-28T05:56:23.764Z,99309.13
2019-02-28T05:58:54.319Z,99309.64
2019-02-28T06:01:24.509Z,99318.20
2019-02-28T06:03:55.847Z,99309.38
2019-02-28T06:06:26.927Z,99301.45
2019-02-28T06:08:56.210Z,99307.66
2019-02-28T06:11:25.178Z,99296.03
2019-02-28T06:13:58.530Z,99297.63
2019-02-28T06:16:31.844Z,99293.96
2019-02-28T06:19:04.593Z,99308.52
2019-02-28T06:21:34.362Z,99293.64
2019-02-28T06:24:04.028Z,99301.92
2019-02-28T06:26:33.064Z,99308.77
2019-02-28T06:29:05.126Z,99326.45
2019-02-28T06:31:38.777Z,99321.08
2019-02-28T06:34:09.307Z,99318.75
2019-02-28T06:36:44.433Z,99327.38
2019-02-28T06:39:13.483Z,99318.55
2019-02-28T06:41:42.439Z,99318.48
2019-02-28T06:44:13.411Z,99320.63
2019-02-28T06:46:43.262Z,99321.97
2019-02-28T06:49:12.731Z,99319.72
2019-02-28T06:51:41.967Z,99320.42
2019-02-28T06:54:12.029Z,99324.22
2019-02-28T06:56:41.021Z,99324.45
2019-02-28T06:59:11.067Z,99323.72
2019-02-28T07:01:41.114Z,99324.59
2019-02-28T07:04:19.826Z,99317.25
2019-02-28T07:06:51.264Z,99319.84
2019-02-28T07:09:22.495Z,99325.13
2019-02-28T07:11:54.937Z,99332.09
2019-02-28T07:14:25.421Z,99328.05
2019-02-28T07:16:56.136Z,99326.88
2019-02-28T07:19:27.041Z,99329.09
2019-02-28T07:21:57.090Z,99332.56
2019-02-28T07:24:30.256Z,99330.98
2019-02-28T07:27:04.221Z,99335.00
2019-02-28T07:29:33.859Z,99325.86
2019-02-28T07:32:06.849Z,99331.63
2019-02-28T07:34:37.074Z,99337.84
2019-02-28T07:37:12.808Z,99336.22
2019-02-28T07:39:42.793Z,99334.22
2019-02-28T07:42:15.524Z,99328.03
2019-02-28T07:44:46.674Z,99330.16
2019-02-28T07:47:17.545Z,99326.38
2019-02-28T07:49:47.353Z,99325.25
2019-02-28T07:52:16.655Z,99333.77
2019-02-28T07:54:51.480Z,99334.80
2019-02-28T07:57:22.417Z,99336.88
2019-02-28T07:59:51.427Z,99339.34
2019-02-28T08:02:20.390Z,99334.73
2019-02-28T08:04:53.897Z,99331.80
2019-02-28T08:07:21.533Z,99323.58
2019-02-28T08:09:52.283Z,99330.78
2019-02-28T08:12:21.236Z,99329.36
2019-02-28T08:14:55.359Z,99325.75
2019-02-28T08:17:26.059Z,99330.80
2019-02-28T08:19:55.300Z,99319.03
2019-02-28T08:22:27.309Z,99326.12
2019-02-28T08:24:57.494Z,99317.00
2019-02-28T08:27:27.643Z,99321.17
2019-02-28T08:30:00.690Z,99319.92
2019-02-28T08:32:33.884Z,99314.39
2019-02-28T08:35:10.543Z,99322.65
2019-02-28T08:37:39.856Z,99319.48
2019-02-28T08:40:26.607Z,99339.45
2019-02-28T08:42:56.282Z,99340.73
2019-02-28T08:45:32.689Z,99336.95
2019-02-28T08:47:58.591Z,99331.47
2019-02-28T08:50:32.235Z,99335.45
2019-02-28T08:53:04.537Z,99330.33
2019-02-28T08:55:41.632Z,99333.78
2019-02-28T08:58:09.983Z,99335.85
2019-02-28T09:00:40.532Z,99333.91
2019-02-28T09:03:12.749Z,99334.06
2019-02-28T09:05:46.130Z,99329.49
2019-02-28T09:08:17.161Z,99331.83
2019-02-28T09:10:47.915Z,99333.56
2019-02-28T09:13:17.503Z,99323.80
2019-02-28T09:15:48.260Z,99315.47
2019-02-28T09:18:17.683Z,99308.30
2019-02-28T09:20:47.658Z,99309.81
2019-02-28T09:23:18.344Z,99297.20
2019-02-28T09:25:49.395Z,99308.80
2019-02-28T09:28:18.354Z,99306.55
2019-02-28T09:30:51.088Z,99323.16
2019-02-28T09:33:28.174Z,99314.70
2019-02-28T09:36:01.738Z,99291.73
2019-02-28T09:38:31.976Z,99289.08
2019-02-28T09:41:04.588Z,99297.31
2019-02-28T09:43:34.079Z,99298.39
2019-02-28T09:46:04.823Z,99304.38
2019-02-28T09:48:37.126Z,99305.82
2019-02-28T09:51:09.124Z,99293.95
2019-02-28T09:53:38.436Z,99303.32
2019-02-28T09:56:10.098Z,99301.67
2019-02-28T09:58:42.590Z,99293.36
2019-02-28T10:01:21.193Z,99285.73
2019-02-28T10:03:52.233Z,99283.64
2019-02-28T10:06:22.461Z,99278.98
2019-02-28T10:08:52.344Z,99277.73
2019-02-28T10:11:21.871Z,99277.69
2019-02-28T10:13:56.139Z,99276.78
2019-02-28T10:16:26.815Z,99278.45
2019-02-28T10:18:57.538Z,99279.75
2019-02-28T10:21:29.841Z,99285.02
2019-02-28T10:24:00.915Z,99280.02
2019-02-28T10:26:39.897Z,99276.48
2019-02-28T10:29:09.174Z,99277.28
2019-02-28T10:31:40.206Z,99276.12
2019-02-28T10:34:11.334Z,99278.69
2019-02-28T10:36:47.386Z,99281.40
2019-02-28T10:39:13.359Z,99273.31
2019-02-28T10:41:42.539Z,99271.59
2019-02-28T10:44:11.828Z,99267.05
2019-02-28T10:46:43.092Z,99265.35
2019-02-28T10:49:13.210Z,99266.84
2019-02-28T10:51:44.659Z,99271.26
2019-02-28T10:54:14.592Z,99273.15
2019-02-28T10:56:47.839Z,99268.80
2019-02-28T10:59:21.347Z,99266.84
2019-02-28T11:01:50.421Z,99256.13
2019-02-28T11:04:19.746Z,99262.66
2019-02-28T11:06:50.877Z,99260.98
2019-02-28T11:09:25.226Z,99251.25
2019-02-28T11:11:53.579Z,99252.59
2019-02-28T11:14:24.805Z,99251.64
2019-02-28T11:16:59.385Z,99244.44
2019-02-28T11:19:26.557Z,99237.40
2019-02-28T11:21:57.898Z,99235.67
2019-02-28T11:24:28.160Z,99230.95
2019-02-28T11:27:01.481Z,99224.53
2019-02-28T11:29:30.759Z,99227.45
2019-02-28T11:32:02.115Z,99227.28
2019-02-28T11:34:33.575Z,99216.87
2019-02-28T11:37:05.472Z,99212.17
2019-02-28T11:39:35.253Z,99212.01
2019-02-28T11:42:08.135Z,99209.78
2019-02-28T11:44:37.134Z,99205.43
2019-02-28T11:47:11.154Z,99172.38
2019-02-28T11:49:42.140Z,99201.30
2019-02-28T11:52:12.138Z,99198.13
2019-02-28T11:54:41.129Z,99193.06
2019-02-28T11:57:11.347Z,99178.43
2019-02-28T11:59:40.314Z,99185.43
2019-02-28T12:02:11.449Z,99181.33
2019-02-28T12:04:41.172Z,99173.14
2019-02-28T12:07:13.316Z,99169.59
2019-02-28T12:09:42.924Z,99163.72
2019-02-28T12:12:13.435Z,99164.77
2019-02-28T12:14:42.748Z,99149.61
2019-02-28T12:17:15.074Z,99150.07
2019-02-28T12:19:47.569Z,99146.38
2019-02-28T12:22:17.211Z,99150.70
2019-02-28T12:24:46.207Z,99150.59
2019-02-28T12:27:15.201Z,99146.34
2019-02-28T12:29:45.667Z,99149.05
2019-02-28T12:32:17.672Z,99152.00
2019-02-28T12:34:53.917Z,99143.89
2019-02-28T12:37:23.364Z,99156.56
2019-02-28T12:39:54.775Z,99150.09
2019-02-28T12:42:24.533Z,99142.74
2019-02-28T12:44:56.248Z,99151.05
2019-02-28T12:47:27.091Z,99149.41
2019-02-28T12:49:59.615Z,99155.63
2019-02-28T12:52:31.554Z,99140.46
2019-02-28T12:55:04.802Z,99132.36
2019-02-28T12:57:34.122Z,99135.69
2019-02-28T13:00:07.201Z,99132.53
2019-02-28T13:02:39.673Z,99131.53
2019-02-28T13:05:14.774Z,99122.92
2019-02-28T13:07:53.876Z,99129.12
2019-02-28T13:10:27.972Z,99134.44
2019-02-28T13:13:05.802Z,99132.71
2019-02-28T13:15:27.443Z,99131.83
2019-02-28T13:17:57.563Z,99122.91
2019-02-28T13:20:32.635Z,99111.46
2019-02-28T13:23:01.230Z,99107.93
2019-02-28T13:25:32.711Z,99117.98
2019-02-28T13:28:02.053Z,99108.91
2019-02-28T13:30:31.140Z,99105.95
2019-02-28T13:33:00.727Z,99105.59
2019-02-28T13:35:32.944Z,99117.86
2019-02-28T13:38:04.577Z,99105.33
2019-02-28T13:40:40.894Z,99110.73
2019-02-28T13:43:09.109Z,99113.05
2019-02-28T13:45:39.197Z,99107.89
2019-02-28T13:48:10.959Z,99105.06
2019-02-28T13:50:45.232Z,99108.27
2019-02-28T13:53:18.591Z,99116.55
2019-02-28T13:55:45.351Z,99108.66
2019-02-28T13:58:17.685Z,99106.75
2019-02-28T14:00:47.329Z,99100.37
2019-02-28T14:03:18.631Z,99108.09
2019-02-28T14:05:50.089Z,99107.34
2019-02-28T14:08:20.921Z,99115.50
2019-02-28T14:10:50.391Z,99114.23
2019-02-28T14:13:19.924Z,99121.42
2019-02-28T14:15:52.532Z,99117.40
2019-02-28T14:18:24.388Z,99125.42
2019-02-28T14:20:53.378Z,99126.87
2019-02-28T14:23:22.980Z,99133.56
2019-02-28T14:25:53.963Z,99127.70
2019-02-28T14:28:24.502Z,99138.41
2019-02-28T14:30:54.402Z,99137.67
2019-02-28T14:33:25.972Z,99153.22
2019-02-28T14:35:56.978Z,99163.25
2019-02-28T14:38:29.629Z,99177.30
2019-02-28T14:40:59.406Z,99172.11
2019-02-28T14:43:29.276Z,99166.43
2019-02-28T14:46:01.834Z,99182.65
2019-02-28T14:48:31.647Z,99175.78
2019-02-28T14:51:02.144Z,99178.54
2019-02-28T14:53:36.015Z,99182.22
2019-02-28T14:56:07.313Z,99172.26
2019-02-28T14:58:38.305Z,99171.13
2019-02-28T15:01:07.488Z,99177.77
2019-02-28T15:03:38.466Z,99196.00
2019-02-28T15:06:08.551Z,99196.02
2019-02-28T15:08:39.341Z,99201.91
2019-02-28T15:11:10.201Z,99210.10
2019-02-28T15:13:41.889Z,99216.84
2019-02-28T15:16:13.168Z,99215.70
2019-02-28T15:18:44.378Z,99212.83
2019-02-28T15:21:13.821Z,99194.41
2019-02-28T15:23:44.496Z,99217.56
2019-02-28T15:26:18.725Z,99217.47
2019-02-28T15:28:50.601Z,99227.94
2019-02-28T15:31:20.032Z,99226.02
2019-02-28T15:33:49.899Z,99233.63
2019-02-28T15:36:20.946Z,99242.97
2019-02-28T15:38:52.198Z,99242.55
2019-02-28T15:41:23.718Z,99247.78
2019-02-28T15:43:53.550Z,99240.72
2019-02-28T15:46:25.118Z,99238.37
2019-02-28T15:48:56.389Z,99244.98
2019-02-28T15:51:29.266Z,99246.59
2019-02-28T15:53:58.879Z,99247.45
2019-02-28T15:56:29.242Z,99246.05
2019-02-28T15:59:11.495Z,99255.16
2019-02-28T16:01:39.163Z,99256.88
2019-02-28T16:04:08.400Z,99242.65
2019-02-28T16:06:38.882Z,99246.95
2019-02-28T16:09:10.894Z,99248.56
2019-02-28T16:11:40.973Z,99247.93
2019-02-28T16:14:14.928Z,99240.56
2019-02-28T16:16:47.039Z,99242.50
2019-02-28T16:19:18.804Z,99241.21
2019-02-28T16:21:50.114Z,99242.00
2019-02-28T16:24:19.304Z,99236.13
2019-02-28T16:26:48.806Z,99243.03
2019-02-28T16:29:21.318Z,99239.20
2019-02-28T16:31:57.908Z,99245.56
2019-02-28T16:34:27.955Z,99251.67
2019-02-28T16:37:01.002Z,99242.89
2019-02-28T16:39:31.803Z,99248.56
2019-02-28T16:42:01.994Z,99249.08
2019-02-28T16:44:32.440Z,99241.88
2019-02-28T16:47:02.509Z,99242.76
2019-02-28T16:49:31.560Z,99240.68
2019-02-28T16:52:02.507Z,99246.83
2019-02-28T16:54:32.841Z,99241.63
2019-02-28T16:57:04.316Z,99243.75
2019-02-28T16:59:33.335Z,99239.34
2019-02-28T17:02:04.742Z,99223.95
2019-02-28T17:04:38.316Z,99239.20
2019-02-28T17:07:09.555Z,99239.86
2019-02-28T17:09:45.479Z,99236.57
2019-02-28T17:12:40.285Z,99233.63
2019-02-28T17:15:23.176Z,99240.91
2019-02-28T17:17:56.546Z,99245.17
2019-02-28T17:20:26.024Z,99239.37
2019-02-28T17:23:02.186Z,99243.25
2019-02-28T17:25:35.865Z,99238.89
2019-02-28T17:28:19.116Z,99241.61
2019-02-28T17:31:26.029Z,99240.03
2019-02-28T17:33:55.818Z,99247.35
2019-02-28T17:36:25.835Z,99247.63
2019-02-28T17:38:56.553Z,99252.98
2019-02-28T17:41:26.256Z,99244.02
2019-02-28T17:44:44.170Z,99237.78
2019-02-28T17:47:29.776Z,99243.59
2019-02-28T17:50:42.840Z,99254.30
2019-02-28T17:54:04.430Z,99243.11
2019-02-28T17:57:08.829Z,99246.89
2019-02-28T18:00:12.898Z,99249.97
2019-02-28T18:03:31.651Z,99254.95
2019-02-28T18:07:08.901Z,99254.39
2019-02-28T18:10:16.355Z,99258.52
2019-02-28T18:13:19.956Z,99251.74
2019-02-28T18:16:24.752Z,99258.66
2019-02-28T18:19:21.603Z,99246.34
2019-02-28T18:22:40.679Z,99241.80
2019-02-28T18:25:53.404Z,99243.05
2019-02-28T18:28:58.117Z,99238.50
2019-02-28T18:31:31.232Z,99234.94
2019-02-28T18:34:10.502Z,99234.08
2019-02-28T18:36:48.949Z,99226.53
2019-02-28T18:39:22.053Z,99226.60
2019-02-28T18:41:54.447Z,99228.27
2019-02-28T18:44:24.687Z,99231.42
2019-02-28T18:46:54.742Z,99225.28
2019-02-28T18:49:26.705Z,99233.60
2019-02-28T18:51:59.593Z,99234.04
2019-02-28T18:54:34.227Z,99235.63
2019-02-28T18:57:07.176Z,99233.66
2019-02-28T18:59:37.815Z,99224.85
2019-02-28T19:02:10.317Z,99234.50
2019-02-28T19:04:53.035Z,99228.50
2019-02-28T19:07:23.908Z,99227.24
2019-02-28T19:09:57.044Z,99228.99
2019-02-28T19:12:27.146Z,99223.45
2019-02-28T19:14:58.658Z,99223.39
2019-02-28T19:17:32.361Z,99220.19
2019-02-28T19:20:02.536Z,99216.65
2019-02-28T19:22:35.535Z,99218.56
2019-02-28T19:25:12.856Z,99215.69
2019-02-28T19:27:42.803Z,99217.23
2019-02-28T19:30:16.647Z,99211.13
2019-02-28T19:32:49.504Z,99209.67
2019-02-28T19:35:22.865Z,99209.80
2019-02-28T19:37:55.125Z,99203.39
2019-02-28T19:40:37.604Z,99206.52
2019-02-28T19:43:10.598Z,99202.11
2019-02-28T19:45:40.918Z,99201.36
2019-02-28T19:48:13.522Z,99199.52
2019-02-28T19:50:47.342Z,99198.75
2019-02-28T19:53:20.596Z,99201.50
2019-02-28T19:55:52.634Z,99202.48
2019-02-28T19:58:21.939Z,99199.95
2019-02-28T20:00:52.089Z,99195.84
2019-02-28T20:03:23.533Z,99195.07
2019-02-28T20:05:53.906Z,99195.53
2019-02-28T20:08:25.608Z,99194.28
2019-02-28T20:10:57.298Z,99189.25
2019-02-28T20:13:30.098Z,99191.61
2019-02-28T20:16:09.436Z,99186.30
2019-02-28T20:18:38.698Z,99194.09
2019-02-28T20:21:08.687Z,99186.67
2019-02-28T20:23:45.722Z,99178.14
2019-02-28T20:26:17.965Z,99171.06
2019-02-28T20:28:49.119Z,99176.09
2019-02-28T20:31:22.392Z,99179.17
2019-02-28T20:33:52.640Z,99174.71
2019-02-28T20:36:22.288Z,99180.11
2019-02-28T20:38:54.941Z,99176.17
2019-02-28T20:41:26.256Z,99167.70
2019-02-28T20:43:58.042Z,99165.47
2019-02-28T20:46:28.053Z,99163.92
2019-02-28T20:49:01.970Z,99151.92
2019-02-28T20:51:31.256Z,99157.02
2019-02-28T20:54:01.602Z,99143.39
2019-02-28T20:56:31.745Z,99141.34
2019-02-28T20:59:05.681Z,99141.14
2019-02-28T21:01:34.524Z,99140.45
2019-02-28T21:04:08.086Z,99127.72
2019-02-28T21:06:37.377Z,99120.88
2019-02-28T21:09:07.899Z,99121.27
2019-02-28T21:11:37.494Z,99116.75
2019-02-28T21:14:12.524Z,99104.38
2019-02-28T21:16:43.975Z,99108.70
2019-02-28T21:19:16.072Z,99097.01
2019-02-28T21:21:45.983Z,99102.41
2019-02-28T21:24:16.526Z,99108.70
2019-02-28T21:26:46.439Z,99111.84
2019-02-28T21:29:15.669Z,99101.56
2019-02-28T21:31:48.788Z,99111.20
2019-02-28T21:34:19.377Z,99105.55
2019-02-28T21:36:49.852Z,99112.75
2019-02-28T21:39:19.911Z,99107.55
2019-02-28T21:41:50.612Z,99102.20
2019-02-28T21:44:21.243Z,99098.70
2019-02-28T21:46:52.425Z,99085.97
2019-02-28T21:49:21.544Z,99087.73
2019-02-28T21:51:52.401Z,99086.09
2019-02-28T21:54:22.736Z,99080.17
2019-02-28T21:56:54.740Z,99078.34
2019-02-28T21:59:28.797Z,99074.32
2019-02-28T22:01:58.343Z,99069.72
2019-02-28T22:04:32.325Z,99064.92
2019-02-28T22:07:01.325Z,99067.72
2019-02-28T22:09:30.970Z,99062.14
2019-02-28T22:12:01.034Z,99060.55
2019-02-28T22:14:34.185Z,98940.84
2019-02-28T22:17:03.343Z,99059.64
2019-02-28T22:19:32.299Z,99055.55
2019-02-28T22:22:01.631Z,99045.80
2019-02-28T22:24:39.023Z,99048.83
2019-02-28T22:27:08.319Z,99035.33
2019-02-28T22:29:37.539Z,99044.38
2019-02-28T22:32:28.727Z,99043.15
2019-02-28T22:35:19.377Z,99042.58
2019-02-28T22:37:49.557Z,99037.43
2019-02-28T22:40:19.358Z,99031.90
2019-02-28T22:42:49.603Z,99039.61
2019-02-28T22:45:19.746Z,99044.62
2019-02-28T22:47:51.005Z,99045.25
2019-02-28T22:50:20.239Z,99037.78
2019-02-28T22:52:49.238Z,99030.13
2019-02-28T22:55:20.233Z,99031.11
2019-02-28T22:57:50.408Z,99031.11
2019-02-28T23:00:38.340Z,99029.45
2019-02-28T23:03:08.196Z,99034.11
2019-02-28T23:05:37.292Z,99032.02
2019-02-28T23:08:16.518Z,99030.30
2019-02-28T23:10:47.222Z,99025.91
2019-02-28T23:13:18.487Z,99026.70
2019-02-28T23:15:50.058Z,99027.59
2019-02-28T23:18:20.554Z,99027.83
2019-02-28T23:20:49.987Z,99027.46
2019-02-28T23:23:22.287Z,99029.45
2019-02-28T23:25:52.863Z,99023.69
2019-02-28T23:28:29.059Z,99024.50
2019-02-28T23:31:39.414Z,99029.70
2019-02-28T23:34:13.531Z,99025.03
2019-02-28T23:36:43.792Z,99021.30
2019-02-28T23:39:13.089Z,99019.19
2019-02-28T23:41:43.368Z,99019.22
2019-02-28T23:44:12.618Z,99013.00
2019-02-28T23:46:43.845Z,99012.81
2019-02-28T23:49:16.053Z,99001.91
2019-02-28T23:51:45.317Z,98998.49
2019-02-28T23:54:15.447Z,98994.45
2019-02-28T23:56:46.151Z,98998.20
2019-02-28T23:59:16.459Z,98991.75
